createdAt,value
2023-04-10T00:00:04.624Z,468.89
2023-04-10T00:00:16.610Z,469.01
2023-04-10T00:00:27.601Z,468.95
2023-04-10T00:00:38.604Z,469.02
2023-04-10T00:00:49.605Z,469.03
2023-04-10T00:01:00.590Z,469.05
2023-04-10T00:01:12.588Z,469.01
2023-04-10T00:01:23.608Z,469.15
2023-04-10T00:01:34.663Z,469.16
2023-04-10T00:01:46.730Z,469.15
2023-04-10T00:01:58.728Z,469.20
2023-04-10T00:02:10.671Z,469.20
2023-04-10T00:02:21.721Z,469.23
2023-04-10T00:02:32.701Z,469.25
2023-04-10T00:02:43.737Z,469.37
2023-04-10T00:02:54.809Z,469.27
2023-04-10T00:03:06.856Z,469.33
2023-04-10T00:03:18.757Z,469.44
2023-04-10T00:03:30.792Z,469.44
2023-04-10T00:03:42.660Z,469.48
2023-04-10T00:03:54.952Z,469.46
2023-04-10T00:04:06.731Z,469.43
2023-04-10T00:04:18.804Z,469.57
2023-04-10T00:04:30.719Z,469.62
2023-04-10T00:04:41.648Z,469.63
2023-04-10T00:04:52.653Z,469.57
2023-04-10T00:05:03.619Z,469.67
2023-04-10T00:05:14.759Z,469.68
2023-04-10T00:05:25.584Z,469.61
2023-04-10T00:05:36.586Z,469.62
2023-04-10T00:05:47.584Z,469.70
2023-04-10T00:05:58.597Z,469.71
2023-04-10T00:06:09.593Z,469.68
2023-04-10T00:06:20.600Z,469.74
2023-04-10T00:06:31.610Z,469.86
2023-04-10T00:06:42.608Z,469.81
2023-04-10T00:06:53.595Z,469.78
2023-04-10T00:07:04.579Z,469.87
2023-04-10T00:07:15.571Z,469.93
2023-04-10T00:07:26.560Z,469.93
2023-04-10T00:07:37.575Z,470.00
2023-04-10T00:07:48.574Z,469.98
2023-04-10T00:07:59.602Z,470.06
2023-04-10T00:08:10.588Z,470.05
2023-04-10T00:08:21.589Z,470.01
2023-04-10T00:08:32.583Z,470.05
2023-04-10T00:08:43.619Z,470.16
2023-04-10T00:08:55.583Z,470.02
2023-04-10T00:09:06.590Z,469.87
2023-04-10T00:09:17.608Z,469.97
2023-04-10T00:09:28.593Z,470.02
2023-04-10T00:09:40.593Z,470.05
2023-04-10T00:09:51.607Z,470.05
2023-04-10T00:10:02.636Z,469.98
2023-04-10T00:10:14.590Z,470.01
2023-04-10T00:10:26.735Z,469.95
2023-04-10T00:10:37.582Z,469.86
2023-04-10T00:10:48.595Z,469.88
2023-04-10T00:10:59.588Z,469.97
2023-04-10T00:11:10.579Z,469.96
2023-04-10T00:11:21.597Z,469.95
2023-04-10T00:11:32.602Z,469.91
2023-04-10T00:11:44.572Z,469.95
2023-04-10T00:11:55.568Z,469.95
2023-04-10T00:12:06.569Z,469.89
2023-04-10T00:12:17.577Z,469.84
2023-04-10T00:12:28.581Z,469.97
2023-04-10T00:12:39.567Z,469.96
2023-04-10T00:12:51.584Z,469.98
2023-04-10T00:13:02.624Z,469.94
2023-04-10T00:13:14.583Z,469.92
2023-04-10T00:13:25.577Z,469.96
2023-04-10T00:13:36.572Z,470.03
2023-04-10T00:13:47.570Z,470.02
2023-04-10T00:13:58.566Z,470.05
2023-04-10T00:14:09.559Z,470.08
2023-04-10T00:14:20.562Z,470.00
2023-04-10T00:14:31.552Z,469.93
2023-04-10T00:14:42.572Z,469.91
2023-04-10T00:14:53.565Z,469.94
2023-04-10T00:15:04.567Z,470.00
2023-04-10T00:15:15.573Z,469.92
2023-04-10T00:15:26.581Z,469.96
2023-04-10T00:15:37.566Z,469.98
2023-04-10T00:15:48.565Z,469.97
2023-04-10T00:15:59.563Z,470.02
2023-04-10T00:16:10.579Z,470.03
2023-04-10T00:16:21.600Z,469.96
2023-04-10T00:16:32.684Z,469.91
2023-04-10T00:16:44.665Z,470.01
2023-04-10T00:16:55.646Z,469.96
2023-04-10T00:17:06.577Z,470.04
2023-04-10T00:17:17.652Z,470.05
2023-04-10T00:17:29.609Z,470.02
2023-04-10T00:17:40.668Z,470.15
2023-04-10T00:17:52.636Z,470.12
2023-04-10T00:18:04.702Z,470.16
2023-04-10T00:18:16.601Z,470.11
2023-04-10T00:18:27.593Z,470.18
2023-04-10T00:18:39.589Z,470.20
2023-04-10T00:18:50.592Z,470.20
2023-04-10T00:19:01.640Z,470.21
2023-04-10T00:19:12.718Z,470.22
2023-04-10T00:19:24.569Z,470.22
2023-04-10T00:19:35.568Z,470.21
2023-04-10T00:19:46.560Z,470.23
2023-04-10T00:19:57.569Z,470.17
2023-04-10T00:20:08.560Z,470.18
2023-04-10T00:20:19.642Z,470.20
2023-04-10T00:20:31.625Z,470.26
2023-04-10T00:20:43.586Z,470.26
2023-04-10T00:20:54.587Z,470.22
2023-04-10T00:21:05.595Z,470.22
2023-04-10T00:21:16.593Z,470.23
2023-04-10T00:21:28.600Z,470.32
2023-04-10T00:21:39.582Z,470.29
2023-04-10T00:21:50.584Z,470.26
2023-04-10T00:22:01.585Z,470.28
2023-04-10T00:22:12.594Z,470.26
2023-04-10T00:22:24.588Z,470.41
2023-04-10T00:22:35.600Z,470.36
2023-04-10T00:22:46.600Z,470.41
2023-04-10T00:22:57.602Z,470.36
2023-04-10T00:23:08.588Z,470.32
2023-04-10T00:23:19.586Z,470.28
2023-04-10T00:23:30.585Z,470.33
2023-04-10T00:23:41.578Z,470.33
2023-04-10T00:23:53.731Z,470.35
2023-04-10T00:24:05.580Z,470.33
2023-04-10T00:24:16.581Z,470.38
2023-04-10T00:24:27.581Z,470.34
2023-04-10T00:24:38.579Z,470.38
2023-04-10T00:24:49.579Z,470.32
2023-04-10T00:25:00.604Z,470.33
2023-04-10T00:25:11.609Z,470.35
2023-04-10T00:25:23.649Z,470.23
2023-04-10T00:25:34.641Z,470.25
2023-04-10T00:25:46.617Z,470.19
2023-04-10T00:25:58.613Z,470.27
2023-04-10T00:26:09.579Z,470.25
2023-04-10T00:26:20.604Z,470.32
2023-04-10T00:26:31.597Z,470.31
2023-04-10T00:26:42.580Z,470.32
2023-04-10T00:26:53.593Z,470.20
2023-04-10T00:27:04.612Z,470.22
2023-04-10T00:27:15.602Z,470.39
2023-04-10T00:27:26.598Z,470.41
2023-04-10T00:27:37.575Z,470.40
2023-04-10T00:27:48.574Z,470.46
2023-04-10T00:27:59.558Z,470.46
2023-04-10T00:28:10.638Z,470.34
2023-04-10T00:28:22.592Z,470.34
2023-04-10T00:28:33.591Z,470.37
2023-04-10T00:28:44.575Z,470.42
2023-04-10T00:28:55.581Z,470.45
2023-04-10T00:29:06.577Z,470.47
2023-04-10T00:29:17.569Z,470.51
2023-04-10T00:29:28.575Z,470.52
2023-04-10T00:29:39.554Z,470.53
2023-04-10T00:29:50.637Z,470.55
2023-04-10T00:30:02.638Z,470.49
2023-04-10T00:30:14.608Z,470.52
2023-04-10T00:30:25.581Z,470.52
2023-04-10T00:30:36.575Z,470.53
2023-04-10T00:30:47.571Z,470.64
2023-04-10T00:30:58.558Z,470.70
2023-04-10T00:31:09.571Z,470.69
2023-04-10T00:31:20.811Z,470.69
2023-04-10T00:31:32.603Z,470.66
2023-04-10T00:31:43.625Z,470.63
2023-04-10T00:31:55.638Z,470.63
2023-04-10T00:32:07.663Z,470.75
2023-04-10T00:32:19.744Z,470.82
2023-04-10T00:32:31.627Z,470.90
2023-04-10T00:32:42.601Z,470.88
2023-04-10T00:32:53.691Z,470.89
2023-04-10T00:33:05.587Z,470.85
2023-04-10T00:34:26.610Z,471.03
2023-04-10T00:34:37.606Z,471.08
2023-04-10T00:34:48.582Z,471.02
2023-04-10T00:34:59.577Z,470.99
2023-04-10T00:35:10.601Z,471.06
2023-04-10T00:35:21.600Z,471.11
2023-04-10T00:35:33.625Z,471.07
2023-04-10T00:35:45.672Z,471.06
2023-04-10T00:35:56.596Z,471.03
2023-04-10T00:36:07.636Z,471.01
2023-04-10T00:36:18.615Z,471.07
2023-04-10T00:36:30.592Z,471.20
2023-04-10T00:36:41.606Z,471.17
2023-04-10T00:36:53.610Z,471.05
2023-04-10T00:37:05.584Z,471.07
2023-04-10T00:37:16.569Z,471.09
2023-04-10T00:37:27.597Z,471.21
2023-04-10T00:37:38.604Z,471.20
2023-04-10T00:37:49.601Z,471.14
2023-04-10T00:38:00.596Z,471.14
2023-04-10T00:38:11.602Z,471.13
2023-04-10T00:38:23.568Z,471.15
2023-04-10T00:38:34.572Z,471.21
2023-04-10T00:38:45.582Z,471.21
2023-04-10T00:38:56.588Z,471.16
2023-04-10T00:39:07.584Z,471.05
2023-04-10T00:39:18.604Z,471.18
2023-04-10T00:39:30.573Z,471.23
2023-04-10T00:39:41.574Z,471.20
2023-04-10T00:39:52.560Z,471.19
2023-04-10T00:40:03.556Z,471.21
2023-04-10T00:40:14.591Z,471.18
2023-04-10T00:40:25.588Z,471.09
2023-04-10T00:40:36.579Z,471.07
2023-04-10T00:40:48.585Z,471.14
2023-04-10T00:40:59.581Z,471.13
2023-04-10T00:41:10.583Z,471.08
2023-04-10T00:41:21.571Z,471.09
2023-04-10T00:41:32.557Z,471.06
2023-04-10T00:41:43.554Z,471.12
2023-04-10T00:41:54.657Z,471.16
2023-04-10T00:42:06.600Z,471.11
2023-04-10T00:42:17.591Z,471.04
2023-04-10T00:42:28.588Z,471.06
2023-04-10T00:42:39.599Z,470.98
2023-04-10T00:42:50.592Z,471.09
2023-04-10T00:43:01.582Z,471.07
2023-04-10T00:43:12.613Z,471.08
2023-04-10T00:43:23.603Z,471.09
2023-04-10T00:43:35.581Z,471.09
2023-04-10T00:43:46.629Z,471.04
2023-04-10T00:43:58.612Z,471.03
2023-04-10T00:44:10.581Z,471.19
2023-04-10T00:44:21.583Z,471.17
2023-04-10T00:44:32.561Z,471.15
2023-04-10T00:44:43.563Z,471.16
2023-04-10T00:44:54.557Z,471.19
2023-04-10T00:45:05.638Z,471.08
2023-04-10T00:45:17.597Z,471.05
2023-04-10T00:45:28.594Z,471.11
2023-04-10T00:45:39.631Z,471.08
2023-04-10T00:45:51.668Z,471.07
2023-04-10T00:46:03.658Z,471.06
2023-04-10T00:46:15.690Z,471.14
2023-04-10T00:46:27.707Z,471.16
2023-04-10T00:46:39.590Z,471.04
2023-04-10T00:46:50.596Z,471.00
2023-04-10T00:47:01.624Z,470.94
2023-04-10T00:47:13.607Z,471.02
2023-04-10T00:47:25.627Z,471.03
2023-04-10T00:47:36.627Z,470.95
2023-04-10T00:47:47.651Z,471.00
2023-04-10T00:47:58.643Z,470.98
2023-04-10T00:48:10.625Z,471.01
2023-04-10T00:48:22.599Z,470.93
2023-04-10T00:48:33.592Z,470.88
2023-04-10T00:48:44.587Z,470.98
2023-04-10T00:48:55.593Z,470.96
2023-04-10T00:49:07.597Z,470.95
2023-04-10T00:49:18.595Z,470.93
2023-04-10T00:49:29.597Z,470.97
2023-04-10T00:49:40.600Z,470.94
2023-04-10T00:49:52.581Z,470.99
2023-04-10T00:50:03.578Z,470.99
2023-04-10T00:50:14.572Z,470.88
2023-04-10T00:50:25.576Z,470.90
2023-04-10T00:50:36.568Z,470.88
2023-04-10T00:50:47.573Z,470.76
2023-04-10T00:50:58.552Z,470.91
2023-04-10T00:51:09.544Z,470.97
2023-04-10T00:51:20.545Z,470.95
2023-04-10T00:51:31.641Z,470.84
2023-04-10T00:51:43.676Z,470.86
2023-04-10T00:51:57.822Z,470.90
2023-04-10T00:52:06.567Z,470.93
2023-04-10T00:52:17.571Z,470.98
2023-04-10T00:52:28.578Z,471.03
2023-04-10T00:52:39.586Z,470.97
2023-04-10T00:52:50.591Z,470.94
2023-04-10T00:53:01.590Z,470.89
2023-04-10T00:53:12.590Z,470.92
2023-04-10T00:53:23.613Z,470.89
2023-04-10T00:53:35.584Z,470.87
2023-04-10T00:53:46.577Z,470.90
2023-04-10T00:53:57.779Z,471.00
2023-04-10T00:54:08.591Z,470.93
2023-04-10T00:54:19.598Z,470.97
2023-04-10T00:54:30.592Z,470.92
2023-04-10T00:54:41.597Z,470.88
2023-04-10T00:54:52.590Z,470.86
2023-04-10T00:55:04.598Z,470.88
2023-04-10T00:55:15.596Z,470.93
2023-04-10T00:55:27.600Z,470.94
2023-04-10T00:55:38.592Z,470.95
2023-04-10T00:55:49.580Z,470.93
2023-04-10T00:56:00.604Z,470.84
2023-04-10T00:56:11.600Z,470.88
2023-04-10T00:56:22.600Z,470.88
2023-04-10T00:56:33.596Z,470.88
2023-04-10T00:56:45.577Z,470.71
2023-04-10T00:56:56.585Z,470.69
2023-04-10T00:57:07.617Z,470.72
2023-04-10T00:57:19.586Z,470.77
2023-04-10T00:57:30.575Z,470.69
2023-04-10T00:57:41.599Z,470.73
2023-04-10T00:57:52.618Z,470.81
2023-04-10T00:58:04.574Z,470.76
2023-04-10T00:58:15.564Z,470.67
2023-04-10T00:58:26.557Z,470.73
2023-04-10T00:58:37.563Z,470.77
2023-04-10T00:58:48.556Z,470.79
2023-04-10T00:58:59.561Z,470.76
2023-04-10T00:59:10.549Z,470.78
2023-04-10T00:59:21.560Z,470.79
2023-04-10T00:59:32.566Z,470.72
2023-04-10T00:59:43.568Z,470.67
2023-04-10T00:59:54.571Z,470.65
2023-04-10T01:00:05.566Z,470.70
2023-04-10T01:00:16.565Z,470.66
2023-04-10T01:00:27.581Z,470.59
2023-04-10T01:00:38.567Z,470.56
2023-04-10T01:00:49.604Z,470.59
2023-04-10T01:01:00.612Z,470.55
2023-04-10T01:01:12.634Z,470.51
2023-04-10T01:01:23.718Z,470.53
2023-04-10T01:01:35.716Z,470.52
2023-04-10T01:01:47.727Z,470.52
2023-04-10T01:01:59.780Z,470.47
2023-04-10T01:02:11.682Z,470.46
2023-04-10T01:02:23.771Z,470.47
2023-04-10T01:02:35.724Z,470.43
2023-04-10T01:02:46.748Z,470.42
2023-04-10T01:02:58.784Z,470.36
2023-04-10T01:03:10.714Z,470.37
2023-04-10T01:03:21.748Z,470.36
2023-04-10T01:03:32.752Z,470.29
2023-04-10T01:03:44.683Z,470.22
2023-04-10T01:03:55.968Z,470.19
2023-04-10T01:04:07.725Z,470.26
2023-04-10T01:04:19.758Z,470.27
2023-04-10T01:04:31.688Z,470.26
2023-04-10T01:04:42.582Z,470.20
2023-04-10T01:04:53.616Z,470.13
2023-04-10T01:05:04.590Z,470.10
2023-04-10T01:05:15.580Z,470.05
2023-04-10T01:05:26.587Z,470.11
2023-04-10T01:05:37.585Z,470.12
2023-04-10T01:05:48.586Z,470.11
2023-04-10T01:06:11.796Z,470.08
2023-04-10T01:06:12.559Z,470.01
2023-04-10T01:06:23.555Z,469.94
2023-04-10T01:06:34.644Z,469.97
2023-04-10T01:06:46.633Z,469.96
2023-04-10T01:06:58.584Z,469.97
2023-04-10T01:07:21.659Z,469.91
2023-04-10T01:07:33.614Z,469.89
2023-04-10T01:07:45.591Z,469.90
2023-04-10T01:07:56.595Z,469.87
2023-04-10T01:08:07.595Z,469.84
2023-04-10T01:08:18.592Z,469.81
2023-04-10T01:08:29.593Z,469.78
2023-04-10T01:08:40.603Z,469.76
2023-04-10T01:08:51.608Z,469.73
2023-04-10T01:09:03.581Z,469.68
2023-04-10T01:09:14.592Z,469.61
2023-04-10T01:09:25.600Z,469.62
2023-04-10T01:09:36.602Z,469.66
2023-04-10T01:09:47.596Z,469.60
2023-04-10T01:09:58.587Z,469.56
2023-04-10T01:10:09.578Z,469.58
2023-04-10T01:10:20.598Z,469.60
2023-04-10T01:10:31.590Z,469.56
2023-04-10T01:10:42.582Z,469.49
2023-04-10T01:10:53.566Z,469.49
2023-04-10T01:11:04.561Z,469.52
2023-04-10T01:11:15.556Z,469.48
2023-04-10T01:11:26.650Z,469.46
2023-04-10T01:11:38.603Z,469.42
2023-04-10T01:11:49.592Z,469.38
2023-04-10T01:12:00.584Z,469.39
2023-04-10T01:12:11.578Z,469.44
2023-04-10T01:12:22.558Z,469.39
2023-04-10T01:12:33.640Z,469.36
2023-04-10T01:12:45.670Z,469.37
2023-04-10T01:12:56.569Z,469.35
2023-04-10T01:13:07.570Z,469.34
2023-04-10T01:13:18.579Z,469.36
2023-04-10T01:13:29.591Z,469.33
2023-04-10T01:13:40.604Z,469.36
2023-04-10T01:13:52.856Z,469.41
2023-04-10T01:14:04.604Z,469.47
2023-04-10T01:14:15.606Z,469.44
2023-04-10T01:14:26.586Z,469.39
2023-04-10T01:14:37.580Z,469.37
2023-04-10T01:14:48.560Z,469.38
2023-04-10T01:14:59.649Z,469.40
2023-04-10T01:15:11.612Z,469.43
2023-04-10T01:15:22.601Z,469.43
2023-04-10T01:15:33.584Z,469.46
2023-04-10T01:15:44.592Z,469.53
2023-04-10T01:15:55.590Z,469.58
2023-04-10T01:16:06.598Z,469.53
2023-04-10T01:16:17.598Z,469.55
2023-04-10T01:16:29.595Z,469.56
2023-04-10T01:16:40.623Z,469.59
2023-04-10T01:16:51.581Z,469.57
2023-04-10T01:17:02.681Z,469.59
2023-04-10T01:17:14.577Z,469.59
2023-04-10T01:17:25.639Z,469.62
2023-04-10T01:17:37.627Z,469.68
2023-04-10T01:17:49.625Z,469.70
2023-04-10T01:18:00.649Z,469.70
2023-04-10T01:18:11.556Z,469.75
2023-04-10T01:18:22.550Z,469.75
2023-04-10T01:18:33.641Z,469.72
2023-04-10T01:18:45.602Z,469.71
2023-04-10T01:18:56.605Z,469.73
2023-04-10T01:19:07.595Z,469.72
2023-04-10T01:19:18.596Z,469.74
2023-04-10T01:19:29.597Z,469.74
2023-04-10T01:19:40.585Z,469.73
2023-04-10T01:19:51.584Z,469.70
2023-04-10T01:20:02.578Z,469.69
2023-04-10T01:20:13.604Z,469.75
2023-04-10T01:20:25.577Z,469.81
2023-04-10T01:20:36.579Z,469.76
2023-04-10T01:20:47.565Z,469.81
2023-04-10T01:20:58.552Z,469.84
2023-04-10T01:21:09.550Z,469.87
2023-04-10T01:21:20.545Z,469.84
2023-04-10T01:21:31.634Z,469.78
2023-04-10T01:21:43.587Z,469.81
2023-04-10T01:21:54.587Z,469.88
2023-04-10T01:22:06.590Z,469.85
2023-04-10T01:22:17.578Z,469.93
2023-04-10T01:22:28.577Z,470.01
2023-04-10T01:22:39.573Z,470.06
2023-04-10T01:22:50.570Z,470.08
2023-04-10T01:23:01.576Z,470.06
2023-04-10T01:23:12.561Z,470.02
2023-04-10T01:23:23.559Z,470.02
2023-04-10T01:23:34.543Z,469.98
2023-04-10T01:23:45.645Z,470.04
2023-04-10T01:23:57.622Z,470.10
2023-04-10T01:24:09.573Z,470.18
2023-04-10T01:24:20.573Z,470.20
2023-04-10T01:24:31.584Z,470.20
2023-04-10T01:24:42.589Z,470.19
2023-04-10T01:24:53.559Z,470.19
2023-04-10T01:25:04.562Z,470.21
2023-04-10T01:25:15.573Z,470.27
2023-04-10T01:25:26.573Z,470.29
2023-04-10T01:25:37.602Z,470.31
2023-04-10T01:25:48.585Z,470.41
2023-04-10T01:25:59.605Z,470.43
2023-04-10T01:26:10.589Z,470.41
2023-04-10T01:26:21.601Z,470.41
2023-04-10T01:26:32.601Z,470.48
2023-04-10T01:26:43.593Z,470.45
2023-04-10T01:26:54.592Z,470.52
2023-04-10T01:27:06.575Z,470.58
2023-04-10T01:27:17.552Z,470.60
2023-04-10T01:27:28.552Z,470.55
2023-04-10T01:27:39.553Z,470.63
2023-04-10T01:27:50.539Z,470.60
2023-04-10T01:28:01.634Z,470.59
2023-04-10T01:28:13.609Z,470.63
2023-04-10T01:28:24.599Z,470.63
2023-04-10T01:28:35.596Z,470.73
2023-04-10T01:28:47.580Z,470.80
2023-04-10T01:28:58.599Z,470.79
2023-04-10T01:29:09.611Z,470.78
2023-04-10T01:29:20.641Z,470.74
2023-04-10T01:29:32.604Z,470.75
2023-04-10T01:29:44.729Z,470.78
2023-04-10T01:29:55.598Z,470.78
2023-04-10T01:30:07.571Z,470.80
2023-04-10T01:30:18.588Z,470.87
2023-04-10T01:30:29.575Z,470.80
2023-04-10T01:30:40.601Z,470.78
2023-04-10T01:30:52.630Z,470.85
2023-04-10T01:31:03.621Z,470.85
2023-04-10T01:31:14.678Z,470.84
2023-04-10T01:31:26.619Z,470.81
2023-04-10T01:31:38.585Z,470.85
2023-04-10T01:31:49.586Z,470.95
2023-04-10T01:32:00.594Z,470.98
2023-04-10T01:32:11.598Z,470.96
2023-04-10T01:32:22.652Z,470.92
2023-04-10T01:32:33.584Z,470.91
2023-04-10T01:32:44.629Z,470.92
2023-04-10T01:32:56.643Z,471.01
2023-04-10T01:33:07.576Z,470.96
2023-04-10T01:33:18.599Z,470.96
2023-04-10T01:33:29.601Z,470.98
2023-04-10T01:33:41.585Z,471.04
2023-04-10T01:33:53.152Z,471.02
2023-04-10T01:34:04.589Z,471.05
2023-04-10T01:34:15.667Z,470.95
2023-04-10T01:34:26.613Z,471.09
2023-04-10T01:34:37.599Z,471.15
2023-04-10T01:34:48.623Z,471.19
2023-04-10T01:35:00.585Z,471.07
2023-04-10T01:35:11.587Z,471.06
2023-04-10T01:35:22.603Z,471.05
2023-04-10T01:35:33.663Z,471.08
2023-04-10T01:35:45.687Z,471.06
2023-04-10T01:35:57.620Z,471.02
2023-04-10T01:36:08.641Z,471.07
2023-04-10T01:36:19.599Z,471.08
2023-04-10T01:36:30.605Z,471.10
2023-04-10T01:36:41.600Z,471.06
2023-04-10T01:36:52.597Z,471.00
2023-04-10T01:37:03.589Z,471.07
2023-04-10T01:37:14.591Z,471.12
2023-04-10T01:37:25.598Z,471.03
2023-04-10T01:37:36.626Z,470.92
2023-04-10T01:37:48.592Z,470.96
2023-04-10T01:37:59.582Z,471.03
2023-04-10T01:38:10.577Z,471.04
2023-04-10T01:38:21.588Z,471.09
2023-04-10T01:38:32.558Z,471.07
2023-04-10T01:38:43.566Z,470.97
2023-04-10T01:38:54.552Z,470.95
2023-04-10T01:39:05.574Z,470.94
2023-04-10T01:39:17.560Z,470.92
2023-04-10T01:39:28.582Z,470.96
2023-04-10T01:39:39.579Z,470.90
2023-04-10T01:39:50.586Z,470.87
2023-04-10T01:40:01.569Z,470.89
2023-04-10T01:40:12.576Z,470.83
2023-04-10T01:40:23.590Z,470.82
2023-04-10T01:40:34.584Z,470.82
2023-04-10T01:40:45.596Z,470.82
2023-04-10T01:40:56.597Z,470.80
2023-04-10T01:41:07.604Z,470.73
2023-04-10T01:41:18.586Z,470.78
2023-04-10T01:41:29.588Z,470.73
2023-04-10T01:41:40.578Z,470.75
2023-04-10T01:41:51.564Z,470.69
2023-04-10T01:42:02.568Z,470.70
2023-04-10T01:42:13.560Z,470.76
2023-04-10T01:42:24.567Z,470.70
2023-04-10T01:42:35.567Z,470.61
2023-04-10T01:42:46.553Z,470.60
2023-04-10T01:42:57.643Z,470.61
2023-04-10T01:43:09.600Z,470.62
2023-04-10T01:43:20.608Z,470.63
2023-04-10T01:43:31.598Z,470.57
2023-04-10T01:43:42.602Z,470.62
2023-04-10T01:43:53.854Z,470.61
2023-04-10T01:44:04.638Z,470.65
2023-04-10T01:44:15.642Z,470.65
2023-04-10T01:44:27.603Z,470.66
2023-04-10T01:44:38.609Z,470.67
2023-04-10T01:44:49.589Z,470.67
2023-04-10T01:45:00.588Z,470.67
2023-04-10T01:45:11.558Z,470.67
2023-04-10T01:45:22.570Z,470.60
2023-04-10T01:45:33.560Z,470.65
2023-04-10T01:45:44.557Z,470.65
2023-04-10T01:45:55.579Z,470.65
2023-04-10T01:46:06.647Z,470.64
2023-04-10T01:46:17.604Z,470.70
2023-04-10T01:46:29.821Z,470.70
2023-04-10T01:46:40.630Z,470.67
2023-04-10T01:46:52.632Z,470.65
2023-04-10T01:47:04.563Z,470.67
2023-04-10T01:47:15.588Z,470.71
2023-04-10T01:47:26.602Z,470.72
2023-04-10T01:47:37.630Z,470.70
2023-04-10T01:47:49.612Z,470.68
2023-04-10T01:48:01.644Z,470.82
2023-04-10T01:48:12.595Z,470.88
2023-04-10T01:48:23.609Z,470.86
2023-04-10T01:48:34.603Z,470.79
2023-04-10T01:48:45.610Z,470.71
2023-04-10T01:48:56.591Z,470.72
2023-04-10T01:49:07.582Z,470.69
2023-04-10T01:49:18.585Z,470.68
2023-04-10T01:49:29.598Z,470.79
2023-04-10T01:49:40.582Z,470.74
2023-04-10T01:49:51.581Z,470.78
2023-04-10T01:50:02.569Z,470.79
2023-04-10T01:50:13.575Z,470.69
2023-04-10T01:50:24.593Z,470.66
2023-04-10T01:50:35.611Z,470.68
2023-04-10T01:50:46.613Z,470.59
2023-04-10T01:50:57.682Z,470.60
2023-04-10T01:51:08.612Z,470.58
2023-04-10T01:51:20.583Z,470.59
2023-04-10T01:51:31.583Z,470.62
2023-04-10T01:51:42.586Z,470.61
2023-04-10T01:51:53.584Z,470.59
2023-04-10T01:52:04.591Z,470.54
2023-04-10T01:52:16.592Z,470.52
2023-04-10T01:52:27.578Z,470.51
2023-04-10T01:52:38.586Z,470.41
2023-04-10T01:52:49.580Z,470.40
2023-04-10T01:53:00.589Z,470.42
2023-04-10T01:53:11.565Z,470.42
2023-04-10T01:53:22.557Z,470.42
2023-04-10T01:53:33.554Z,470.43
2023-04-10T01:53:44.640Z,470.38
2023-04-10T01:53:56.609Z,470.33
2023-04-10T01:54:07.615Z,470.30
2023-04-10T01:54:18.605Z,470.29
2023-04-10T01:54:29.597Z,470.27
2023-04-10T01:54:40.604Z,470.26
2023-04-10T01:54:52.589Z,470.22
2023-04-10T01:55:03.563Z,470.22
2023-04-10T01:55:14.607Z,470.18
2023-04-10T01:55:25.602Z,470.16
2023-04-10T01:55:36.617Z,470.15
2023-04-10T01:55:48.599Z,470.12
2023-04-10T01:55:59.587Z,470.05
2023-04-10T01:56:11.579Z,470.04
2023-04-10T01:56:22.575Z,470.03
2023-04-10T01:56:33.601Z,469.98
2023-04-10T01:56:44.584Z,470.02
2023-04-10T01:56:55.585Z,469.98
2023-04-10T01:57:06.616Z,469.94
2023-04-10T01:57:17.618Z,469.88
2023-04-10T01:57:29.576Z,469.92
2023-04-10T01:57:40.626Z,469.89
2023-04-10T01:57:52.589Z,469.91
2023-04-10T01:58:03.644Z,469.87
2023-04-10T01:58:15.608Z,469.87
2023-04-10T01:58:26.591Z,469.88
2023-04-10T01:58:37.598Z,469.86
2023-04-10T01:58:48.603Z,469.86
2023-04-10T01:58:59.592Z,469.85
2023-04-10T01:59:10.585Z,469.77
2023-04-10T01:59:21.581Z,469.75
2023-04-10T01:59:32.570Z,469.84
2023-04-10T01:59:43.567Z,469.83
2023-04-10T01:59:54.567Z,469.77
2023-04-10T02:00:05.630Z,469.71
2023-04-10T02:00:16.597Z,469.73
2023-04-10T02:00:27.687Z,469.69
2023-04-10T02:00:38.615Z,469.61
2023-04-10T02:00:50.585Z,469.64
2023-04-10T02:01:01.626Z,469.73
2023-04-10T02:01:22.411Z,469.75
2023-04-10T02:01:30.302Z,469.69
2023-04-10T02:01:37.672Z,469.67
2023-04-10T02:01:49.777Z,469.62
2023-04-10T02:02:00.630Z,469.64
2023-04-10T02:02:11.930Z,469.66
2023-04-10T02:02:22.772Z,469.69
2023-04-10T02:02:33.939Z,469.62
2023-04-10T02:02:45.744Z,469.55
2023-04-10T02:02:56.722Z,469.54
2023-04-10T02:03:07.806Z,469.58
2023-04-10T02:03:18.783Z,469.59
2023-04-10T02:03:29.732Z,469.63
2023-04-10T02:03:40.701Z,469.64
2023-04-10T02:03:52.803Z,469.63
2023-04-10T02:04:03.646Z,469.59
2023-04-10T02:04:14.681Z,469.62
2023-04-10T02:04:25.656Z,469.63
2023-04-10T02:04:37.770Z,469.68
2023-04-10T02:04:49.618Z,469.68
2023-04-10T02:05:00.662Z,469.69
2023-04-10T02:05:11.660Z,469.70
2023-04-10T02:05:23.620Z,469.66
2023-04-10T02:05:34.613Z,469.64
2023-04-10T02:05:45.610Z,469.70
2023-04-10T02:05:56.619Z,469.71
2023-04-10T02:06:07.620Z,469.71
2023-04-10T02:06:18.627Z,469.72
2023-04-10T02:06:30.578Z,469.75
2023-04-10T02:06:41.610Z,469.76
2023-04-10T02:06:53.586Z,469.82
2023-04-10T02:07:04.600Z,469.79
2023-04-10T02:07:16.587Z,469.82
2023-04-10T02:07:27.583Z,469.81
2023-04-10T02:07:38.558Z,469.79
2023-04-10T02:07:49.563Z,469.81
2023-04-10T02:08:00.558Z,469.81
2023-04-10T02:08:11.547Z,469.82
2023-04-10T02:08:22.565Z,469.79
2023-04-10T02:08:33.558Z,469.82
2023-04-10T02:08:44.572Z,469.83
2023-04-10T02:08:55.564Z,469.87
2023-04-10T02:09:06.566Z,469.89
2023-04-10T02:09:17.606Z,469.90
2023-04-10T02:09:28.615Z,469.93
2023-04-10T02:09:39.608Z,469.95
2023-04-10T02:09:51.612Z,469.91
2023-04-10T02:10:02.609Z,469.88
2023-04-10T02:10:13.617Z,469.90
2023-04-10T02:10:25.594Z,469.97
2023-04-10T02:10:36.580Z,469.98
2023-04-10T02:10:47.571Z,470.03
2023-04-10T02:10:58.569Z,470.04
2023-04-10T02:11:09.557Z,470.06
2023-04-10T02:11:20.559Z,470.06
2023-04-10T02:11:31.551Z,470.02
2023-04-10T02:11:42.563Z,470.01
2023-04-10T02:11:53.559Z,470.07
2023-04-10T02:12:04.558Z,470.09
2023-04-10T02:12:15.562Z,470.09
2023-04-10T02:12:26.568Z,470.12
2023-04-10T02:12:37.573Z,470.11
2023-04-10T02:12:48.569Z,470.09
2023-04-10T02:12:59.564Z,470.09
2023-04-10T02:13:10.588Z,470.10
2023-04-10T02:13:21.582Z,470.12
2023-04-10T02:13:32.571Z,470.17
2023-04-10T02:13:43.571Z,470.20
2023-04-10T02:13:54.832Z,470.20
2023-04-10T02:14:05.555Z,470.20
2023-04-10T02:14:16.580Z,470.23
2023-04-10T02:14:27.623Z,470.24
2023-04-10T02:14:38.624Z,470.25
2023-04-10T02:14:50.595Z,470.29
2023-04-10T02:15:02.600Z,470.32
2023-04-10T02:15:13.604Z,470.30
2023-04-10T02:15:24.607Z,470.29
2023-04-10T02:15:35.698Z,470.26
2023-04-10T02:15:46.635Z,470.33
2023-04-10T02:15:58.615Z,470.31
2023-04-10T02:16:09.616Z,470.35
2023-04-10T02:16:21.612Z,470.41
2023-04-10T02:16:33.635Z,470.44
2023-04-10T02:16:45.626Z,470.46
2023-04-10T02:16:57.593Z,470.47
2023-04-10T02:17:08.607Z,470.49
2023-04-10T02:17:19.657Z,470.51
2023-04-10T02:17:31.643Z,470.55
2023-04-10T02:17:42.635Z,470.53
2023-04-10T02:17:53.618Z,470.52
2023-04-10T02:18:04.772Z,470.53
2023-04-10T02:18:15.629Z,470.55
2023-04-10T02:18:27.602Z,470.55
2023-04-10T02:18:39.628Z,470.59
2023-04-10T02:18:51.598Z,470.59
2023-04-10T02:19:03.577Z,470.60
2023-04-10T02:19:14.616Z,470.62
2023-04-10T02:19:25.648Z,470.60
2023-04-10T02:19:37.616Z,470.62
2023-04-10T02:19:49.607Z,470.62
2023-04-10T02:20:01.581Z,470.58
2023-04-10T02:20:12.584Z,470.64
2023-04-10T02:20:23.591Z,470.65
2023-04-10T02:20:34.604Z,470.65
2023-04-10T02:20:45.594Z,470.68
2023-04-10T02:20:56.608Z,470.71
2023-04-10T02:21:07.606Z,470.73
2023-04-10T02:21:18.625Z,470.74
2023-04-10T02:21:29.615Z,470.75